sensor_id;sensor_type;location;lat;lon;timestamp;pressure;altitude;pressure_sealevel;temperature;humidity
8705;BME280;4389;41.932;25.904;2023-07-13T00:00:36;-16708.38;;;24.08;84.96
8705;BME280;4389;41.932;25.904;2023-07-13T00:03:03;-16712.84;;;24.25;83.92
8705;BME280;4389;41.932;25.904;2023-07-13T00:05:30;-16713.25;;;24.27;83.92
8705;BME280;4389;41.932;25.904;2023-07-13T00:07:57;-16716.53;;;24.39;83.25
8705;BME280;4389;41.932;25.904;2023-07-13T00:10:24;-16719.72;;;24.51;82.89
8705;BME280;4389;41.932;25.904;2023-07-13T00:12:51;-16722.63;;;24.62;82.02
8705;BME280;4389;41.932;25.904;2023-07-13T00:15:23;-16726.03;;;24.75;81.09
8705;BME280;4389;41.932;25.904;2023-07-13T00:17:51;-16728.81;;;24.85;80.52
8705;BME280;4389;41.932;25.904;2023-07-13T00:20:19;-16730.53;;;24.92;79.93
8705;BME280;4389;41.932;25.904;2023-07-13T00:22:47;-16732.63;;;25.00;78.89
8705;BME280;4389;41.932;25.904;2023-07-13T00:25:15;-16732.91;;;25.01;79.10
8705;BME280;4389;41.932;25.904;2023-07-13T00:27:42;-16733.69;;;25.04;78.87
8705;BME280;4389;41.932;25.904;2023-07-13T00:30:10;-16736.31;;;25.14;78.23
8705;BME280;4389;41.932;25.904;2023-07-13T00:32:39;-16737.66;;;25.19;77.99
8705;BME280;4389;41.932;25.904;2023-07-13T00:35:07;-16737.38;;;25.18;77.94
8705;BME280;4389;41.932;25.904;2023-07-13T00:37:34;-16733.16;;;25.02;78.51
8705;BME280;4389;41.932;25.904;2023-07-13T00:40:01;-16733.44;;;25.03;79.16
8705;BME280;4389;41.932;25.904;2023-07-13T00:42:28;-16725.50;;;24.73;81.02
8705;BME280;4389;41.932;25.904;2023-07-13T00:46:06;-16718.91;;;24.48;82.33
8705;BME280;4389;41.932;25.904;2023-07-13T00:47:57;-16719.19;;;24.49;82.55
8705;BME280;4389;41.932;25.904;2023-07-13T00:50:24;-16722.63;;;24.62;81.40
8705;BME280;4389;41.932;25.904;2023-07-13T00:52:53;-16724.47;;;24.69;80.79
8705;BME280;4389;41.932;25.904;2023-07-13T00:55:23;-16726.03;;;24.75;80.29
8705;BME280;4389;41.932;25.904;2023-07-13T00:57:50;-16726.84;;;24.78;80.66
8705;BME280;4389;41.932;25.904;2023-07-13T01:00:17;-16712.72;;;24.25;83.61
8705;BME280;4389;41.932;25.904;2023-07-13T01:02:45;-16704.66;;;23.94;85.31
8705;BME280;4389;41.932;25.904;2023-07-13T01:05:17;-16704.16;;;23.92;85.91
8705;BME280;4389;41.932;25.904;2023-07-13T01:07:45;-16700.72;;;23.79;86.49
8705;BME280;4389;41.932;25.904;2023-07-13T01:10:13;-16697.00;;;23.65;87.31
8705;BME280;4389;41.932;25.904;2023-07-13T01:12:40;-16700.19;;;23.77;86.92
8705;BME280;4389;41.932;25.904;2023-07-13T01:15:35;-16700.31;;;23.78;86.95
8705;BME280;4389;41.932;25.904;2023-07-13T01:18:03;-16693.44;;;23.52;87.66
8705;BME280;4389;41.932;25.904;2023-07-13T01:20:32;-16695.28;;;23.59;87.95
8705;BME280;4389;41.932;25.904;2023-07-13T01:23:04;-16699.13;;;23.73;87.14
8705;BME280;4389;41.932;25.904;2023-07-13T01:25:31;-16698.84;;;23.72;87.11
8705;BME280;4389;41.932;25.904;2023-07-13T01:27:58;-16699.78;;;23.76;87.15
8705;BME280;4389;41.932;25.904;2023-07-13T01:30:25;-16698.06;;;23.69;87.16
8705;BME280;4389;41.932;25.904;2023-07-13T01:32:52;-16697.53;;;23.67;87.35
8705;BME280;4389;41.932;25.904;2023-07-13T01:35:19;-16694.38;;;23.55;87.39
8705;BME280;4389;41.932;25.904;2023-07-13T01:37:45;-16699.66;;;23.75;86.93
8705;BME280;4389;41.932;25.904;2023-07-13T01:40:14;-16701.91;;;23.84;86.39
8705;BME280;4389;41.932;25.904;2023-07-13T01:42:41;-16703.88;;;23.91;85.77
8705;BME280;4389;41.932;25.904;2023-07-13T01:45:08;-16704.16;;;23.92;85.62
8705;BME280;4389;41.932;25.904;2023-07-13T01:47:35;-16705.31;;;23.97;85.56
8705;BME280;4389;41.932;25.904;2023-07-13T01:50:02;-16706.78;;;24.02;85.23
8705;BME280;4389;41.932;25.904;2023-07-13T01:52:29;-16707.19;;;24.04;85.38
8705;BME280;4389;41.932;25.904;2023-07-13T01:54:56;-16707.31;;;24.04;85.46
8705;BME280;4389;41.932;25.904;2023-07-13T01:57:24;-16706.66;;;24.02;85.09
8705;BME280;4389;41.932;25.904;2023-07-13T01:59:51;-16707.03;;;24.03;84.97
8705;BME280;4389;41.932;25.904;2023-07-13T02:02:17;-16703.63;;;23.90;85.31
8705;BME280;4389;41.932;25.904;2023-07-13T02:04:45;-16697.00;;;23.65;85.95
8705;BME280;4389;41.932;25.904;2023-07-13T02:07:12;-16693.84;;;23.53;87.16
8705;BME280;4389;41.932;25.904;2023-07-13T02:09:40;-16698.84;;;23.72;86.71
8705;BME280;4389;41.932;25.904;2023-07-13T02:12:08;-16699.53;;;23.75;86.55
8705;BME280;4389;41.932;25.904;2023-07-13T02:14:36;-16700.97;;;23.80;86.25
8705;BME280;4389;41.932;25.904;2023-07-13T02:17:04;-16703.22;;;23.89;85.79
8705;BME280;4389;41.932;25.904;2023-07-13T02:19:31;-16704.94;;;23.95;85.40
8705;BME280;4389;41.932;25.904;2023-07-13T02:21:58;-16704.94;;;23.95;85.46
8705;BME280;4389;41.932;25.904;2023-07-13T02:24:24;-16706.66;;;24.02;85.38
8705;BME280;4389;41.932;25.904;2023-07-13T02:26:52;-16706.25;;;24.00;84.96
8705;BME280;4389;41.932;25.904;2023-07-13T02:29:19;-16703.75;;;23.91;85.80
8705;BME280;4389;41.932;25.904;2023-07-13T02:31:47;-16702.03;;;23.84;85.46
8705;BME280;4389;41.932;25.904;2023-07-13T02:34:14;-16699.53;;;23.75;85.70
8705;BME280;4389;41.932;25.904;2023-07-13T02:36:41;-16694.91;;;23.57;86.24
8705;BME280;4389;41.932;25.904;2023-07-13T02:39:08;-16693.31;;;23.51;86.29
8705;BME280;4389;41.932;25.904;2023-07-13T02:41:35;-16693.56;;;23.52;86.82
8705;BME280;4389;41.932;25.904;2023-07-13T02:44:02;-16690.41;;;23.40;87.09
8705;BME280;4389;41.932;25.904;2023-07-13T02:46:29;-16682.47;;;23.10;87.81
8705;BME280;4389;41.932;25.904;2023-07-13T02:48:57;-16676.16;;;22.86;88.94
8705;BME280;4389;41.932;25.904;2023-07-13T02:51:24;-16670.47;;;22.65;90.60
8705;BME280;4389;41.932;25.904;2023-07-13T02:53:51;-16658.97;;;22.21;92.44
8705;BME280;4389;41.932;25.904;2023-07-13T02:56:24;-16662.94;;;22.36;93.41
8705;BME280;4389;41.932;25.904;2023-07-13T02:58:51;-16658.44;;;22.19;93.95
8705;BME280;4389;41.932;25.904;2023-07-13T03:01:18;-16652.50;;;21.97;95.20
8705;BME280;4389;41.932;25.904;2023-07-13T03:03:46;-16656.47;;;22.12;95.83
8705;BME280;4389;41.932;25.904;2023-07-13T03:06:15;-16655.41;;;22.08;95.63
8705;BME280;4389;41.932;25.904;2023-07-13T03:08:43;-16654.88;;;22.06;96.02
8705;BME280;4389;41.932;25.904;2023-07-13T03:11:12;-16657.78;;;22.17;95.47
8705;BME280;4389;41.932;25.904;2023-07-13T03:13:40;-16660.56;;;22.27;95.46
8705;BME280;4389;41.932;25.904;2023-07-13T03:16:08;-16664.66;;;22.43;94.42
8705;BME280;4389;41.932;25.904;2023-07-13T03:18:35;-16672.44;;;22.72;93.21
8705;BME280;4389;41.932;25.904;2023-07-13T03:21:03;-16678.53;;;22.95;92.07
8705;BME280;4389;41.932;25.904;2023-07-13T03:23:32;-16687.63;;;23.30;90.28
8705;BME280;4389;41.932;25.904;2023-07-13T03:26:03;-16690.94;;;23.42;89.16
8705;BME280;4389;41.932;25.904;2023-07-13T03:28:30;-16702.56;;;23.86;87.43
8705;BME280;4389;41.932;25.904;2023-07-13T03:31:02;-16714.03;;;24.30;84.92
8705;BME280;4389;41.932;25.904;2023-07-13T03:33:29;-16722.09;;;24.60;83.40
8705;BME280;4389;41.932;25.904;2023-07-13T03:35:56;-16728.69;;;24.85;82.55
8705;BME280;4389;41.932;25.904;2023-07-13T03:38:23;-16736.47;;;25.14;80.64
8705;BME280;4389;41.932;25.904;2023-07-13T03:40:53;-16745.81;;;25.50;79.27
8705;BME280;4389;41.932;25.904;2023-07-13T03:43:20;-16749.78;;;25.65;78.04
8705;BME280;4389;41.932;25.904;2023-07-13T03:45:47;-16763.63;;;26.17;76.42
8705;BME280;4389;41.932;25.904;2023-07-13T03:48:14;-16770.06;;;26.42;74.53
8705;BME280;4389;41.932;25.904;2023-07-13T03:50:41;-16766.91;;;26.30;75.16
8705;BME280;4389;41.932;25.904;2023-07-13T03:53:08;-16764.16;;;26.19;76.25
8705;BME280;4389;41.932;25.904;2023-07-13T03:55:35;-16759.53;;;26.02;77.40
8705;BME280;4389;41.932;25.904;2023-07-13T03:58:25;-16767.97;;;26.34;76.35
8705;BME280;4389;41.932;25.904;2023-07-13T04:00:52;-16773.91;;;26.56;74.84
8705;BME280;4389;41.932;25.904;2023-07-13T04:03:19;-16786.00;;;27.02;73.36
8705;BME280;4389;41.932;25.904;2023-07-13T04:05:46;-16794.84;;;27.36;71.72
8705;BME280;4389;41.932;25.904;2023-07-13T04:08:13;-16802.59;;;27.65;69.85
8705;BME280;4389;41.932;25.904;2023-07-13T04:10:40;-16815.91;;;28.16;68.45
8705;BME280;4389;41.932;25.904;2023-07-13T04:13:07;-16828.53;;;28.64;66.51
8705;BME280;4389;41.932;25.904;2023-07-13T04:15:35;-16832.72;;;28.80;64.65
8705;BME280;4389;41.932;25.904;2023-07-13T04:18:02;-16828.91;;;28.65;65.15
8705;BME280;4389;41.932;25.904;2023-07-13T04:20:29;-16827.88;;;28.61;65.93
8705;BME280;4389;41.932;25.904;2023-07-13T04:22:56;-16848.78;;;29.41;63.03
8705;BME280;4389;41.932;25.904;2023-07-13T04:25:24;-16845.88;;;29.30;62.70
8705;BME280;4389;41.932;25.904;2023-07-13T04:27:52;-16851.28;;;29.50;61.99
8705;BME280;4389;41.932;25.904;2023-07-13T04:30:24;-16857.72;;;29.75;61.16
8705;BME280;4389;41.932;25.904;2023-07-13T04:32:53;-16849.81;;;29.45;62.90
8705;BME280;4389;41.932;25.904;2023-07-13T04:35:20;-16846.41;;;29.32;63.61
8705;BME280;4389;41.932;25.904;2023-07-13T04:37:47;-16847.19;;;29.35;63.45
8705;BME280;4389;41.932;25.904;2023-07-13T04:40:15;-16857.72;;;29.75;61.76
8705;BME280;4389;41.932;25.904;2023-07-13T04:42:43;-16857.47;;;29.74;61.87
8705;BME280;4389;41.932;25.904;2023-07-13T04:45:10;-16865.19;;;30.03;61.68
8705;BME280;4389;41.932;25.904;2023-07-13T04:47:37;-16874.00;;;30.36;60.08
8705;BME280;4389;41.932;25.904;2023-07-13T04:50:07;-16868.63;;;30.16;60.62
8705;BME280;4389;41.932;25.904;2023-07-13T04:52:34;-16881.38;;;30.64;59.12
8705;BME280;4389;41.932;25.904;2023-07-13T04:55:01;-16876.75;;;30.47;59.24
8705;BME280;4389;41.932;25.904;2023-07-13T04:57:28;-16880.06;;;30.59;59.26
8705;BME280;4389;41.932;25.904;2023-07-13T04:59:55;-16881.63;;;30.65;59.02
8705;BME280;4389;41.932;25.904;2023-07-13T05:02:22;-16862.44;;;29.93;61.70
8705;BME280;4389;41.932;25.904;2023-07-13T05:04:49;-16843.66;;;29.21;63.96
8705;BME280;4389;41.932;25.904;2023-07-13T05:07:17;-16833.66;;;28.83;65.45
8705;BME280;4389;41.932;25.904;2023-07-13T05:09:44;-16829.06;;;28.66;67.23
8705;BME280;4389;41.932;25.904;2023-07-13T05:12:11;-16822.34;;;28.40;68.59
8705;BME280;4389;41.932;25.904;2023-07-13T05:14:37;-16813.78;;;28.08;71.52
8705;BME280;4389;41.932;25.904;2023-07-13T05:17:04;-16814.72;;;28.11;70.22
8705;BME280;4389;41.932;25.904;2023-07-13T05:19:31;-16817.22;;;28.21;69.63
8705;BME280;4389;41.932;25.904;2023-07-13T05:21:58;-16814.59;;;28.11;70.09
8705;BME280;4389;41.932;25.904;2023-07-13T05:24:26;-16810.63;;;27.96;70.45
8705;BME280;4389;41.932;25.904;2023-07-13T05:26:53;-16814.31;;;28.10;70.03
8705;BME280;4389;41.932;25.904;2023-07-13T05:29:20;-16815.63;;;28.15;69.88
8705;BME280;4389;41.932;25.904;2023-07-13T05:31:48;-16814.31;;;28.10;69.80
8705;BME280;4389;41.932;25.904;2023-07-13T05:34:15;-16816.69;;;28.19;69.32
8705;BME280;4389;41.932;25.904;2023-07-13T05:36:42;-16818.78;;;28.27;67.24
8705;BME280;4389;41.932;25.904;2023-07-13T05:39:09;-16823.00;;;28.43;68.03
8705;BME280;4389;41.932;25.904;2023-07-13T05:41:38;-16823.25;;;28.44;66.27
8705;BME280;4389;41.932;25.904;2023-07-13T05:44:05;-16819.84;;;28.31;66.46
8705;BME280;4389;41.932;25.904;2023-07-13T05:46:31;-16820.09;;;28.32;67.12
8705;BME280;4389;41.932;25.904;2023-07-13T05:48:59;-16825.63;;;28.53;67.44
8705;BME280;4389;41.932;25.904;2023-07-13T05:51:25;-16822.88;;;28.42;67.14
8705;BME280;4389;41.932;25.904;2023-07-13T05:53:52;-16826.69;;;28.57;67.30
8705;BME280;4389;41.932;25.904;2023-07-13T05:56:19;-16831.94;;;28.77;65.94
8705;BME280;4389;41.932;25.904;2023-07-13T05:58:48;-16832.34;;;28.78;66.22
8705;BME280;4389;41.932;25.904;2023-07-13T06:01:16;-16834.56;;;28.87;65.92
8705;BME280;4389;41.932;25.904;2023-07-13T06:03:44;-16835.38;;;28.90;66.28
8705;BME280;4389;41.932;25.904;2023-07-13T06:06:11;-16841.16;;;29.12;64.85
8705;BME280;4389;41.932;25.904;2023-07-13T06:08:38;-16841.03;;;29.11;65.36
8705;BME280;4389;41.932;25.904;2023-07-13T06:11:07;-16845.63;;;29.29;64.80
8705;BME280;4389;41.932;25.904;2023-07-13T06:13:34;-16849.31;;;29.43;65.03
8705;BME280;4389;41.932;25.904;2023-07-13T06:16:03;-16853.38;;;29.58;64.22
8705;BME280;4389;41.932;25.904;2023-07-13T06:18:31;-16854.03;;;29.61;64.30
8705;BME280;4389;41.932;25.904;2023-07-13T06:20:58;-16853.25;;;29.58;64.18
8705;BME280;4389;41.932;25.904;2023-07-13T06:23:25;-16856.66;;;29.71;62.81
8705;BME280;4389;41.932;25.904;2023-07-13T06:25:52;-16857.84;;;29.75;62.64
8705;BME280;4389;41.932;25.904;2023-07-13T06:28:18;-16863.09;;;29.95;62.47
8705;BME280;4389;41.932;25.904;2023-07-13T06:30:45;-16870.59;;;30.24;62.51
8705;BME280;4389;41.932;25.904;2023-07-13T06:33:13;-16869.28;;;30.19;62.44
8705;BME280;4389;41.932;25.904;2023-07-13T06:35:40;-16867.19;;;30.11;61.36
8705;BME280;4389;41.932;25.904;2023-07-13T06:38:07;-16866.53;;;30.08;61.85
8705;BME280;4389;41.932;25.904;2023-07-13T06:40:34;-16867.19;;;30.11;62.47
8705;BME280;4389;41.932;25.904;2023-07-13T06:43:01;-16869.81;;;30.21;61.94
8705;BME280;4389;41.932;25.904;2023-07-13T06:45:27;-16874.53;;;30.38;61.42
8705;BME280;4389;41.932;25.904;2023-07-13T06:47:54;-16880.31;;;30.60;61.00
8705;BME280;4389;41.932;25.904;2023-07-13T06:50:23;-16883.59;;;30.73;59.84
8705;BME280;4389;41.932;25.904;2023-07-13T06:52:50;-16884.00;;;30.74;58.86
8705;BME280;4389;41.932;25.904;2023-07-13T06:55:18;-16885.84;;;30.81;59.51
8705;BME280;4389;41.932;25.904;2023-07-13T06:57:45;-16888.59;;;30.92;60.01
8705;BME280;4389;41.932;25.904;2023-07-13T07:00:13;-16892.66;;;31.07;58.17
8705;BME280;4389;41.932;25.904;2023-07-13T07:02:40;-16896.34;;;31.21;58.87
8705;BME280;4389;41.932;25.904;2023-07-13T07:05:07;-16901.06;;;31.39;57.32
8705;BME280;4389;41.932;25.904;2023-07-13T07:07:35;-16901.19;;;31.40;58.44
8705;BME280;4389;41.932;25.904;2023-07-13T07:10:02;-16896.72;;;31.23;58.59
8705;BME280;4389;41.932;25.904;2023-07-13T07:12:29;-16903.41;;;31.48;58.19
8705;BME280;4389;41.932;25.904;2023-07-13T07:14:57;-16906.81;;;31.61;58.18
8705;BME280;4389;41.932;25.904;2023-07-13T07:17:24;-16904.22;;;31.51;58.46
8705;BME280;4389;41.932;25.904;2023-07-13T07:19:52;-16906.56;;;31.60;57.73
8705;BME280;4389;41.932;25.904;2023-07-13T07:22:19;-16906.31;;;31.59;57.57
8705;BME280;4389;41.932;25.904;2023-07-13T07:24:47;-16912.47;;;31.83;56.25
8705;BME280;4389;41.932;25.904;2023-07-13T07:27:14;-16915.75;;;31.95;55.27
8705;BME280;4389;41.932;25.904;2023-07-13T07:29:41;-16914.97;;;31.92;55.13
8705;BME280;4389;41.932;25.904;2023-07-13T07:32:08;-16913.66;;;31.87;56.24
8705;BME280;4389;41.932;25.904;2023-07-13T07:34:35;-16917.31;;;32.01;55.53
8705;BME280;4389;41.932;25.904;2023-07-13T07:37:02;-16917.59;;;32.02;55.42
8705;BME280;4389;41.932;25.904;2023-07-13T07:39:29;-16917.31;;;32.01;55.04
8705;BME280;4389;41.932;25.904;2023-07-13T07:41:57;-16920.72;;;32.14;54.96
8705;BME280;4389;41.932;25.904;2023-07-13T07:44:24;-16926.50;;;32.36;53.81
8705;BME280;4389;41.932;25.904;2023-07-13T07:46:52;-16929.41;;;32.47;54.49
8705;BME280;4389;41.932;25.904;2023-07-13T07:49:19;-16937.25;;;32.77;54.32
8705;BME280;4389;41.932;25.904;2023-07-13T07:51:46;-16942.25;;;32.96;54.53
8705;BME280;4389;41.932;25.904;2023-07-13T07:54:13;-16937.00;;;32.76;51.27
8705;BME280;4389;41.932;25.904;2023-07-13T07:56:40;-16936.22;;;32.73;51.82
8705;BME280;4389;41.932;25.904;2023-07-13T07:59:08;-16943.16;;;33.00;52.63
8705;BME280;4389;41.932;25.904;2023-07-13T08:01:36;-16944.34;;;33.04;51.81
8705;BME280;4389;41.932;25.904;2023-07-13T08:04:03;-16936.88;;;32.76;52.25
8705;BME280;4389;41.932;25.904;2023-07-13T08:06:31;-16943.56;;;33.01;52.35
8705;BME280;4389;41.932;25.904;2023-07-13T08:08:58;-16942.63;;;32.98;52.20
8705;BME280;4389;41.932;25.904;2023-07-13T08:11:25;-16944.88;;;33.06;51.66
8705;BME280;4389;41.932;25.904;2023-07-13T08:13:52;-16945.66;;;33.09;51.58
8705;BME280;4389;41.932;25.904;2023-07-13T08:16:20;-16950.25;;;33.27;50.45
8705;BME280;4389;41.932;25.904;2023-07-13T08:18:47;-16948.53;;;33.20;50.24
8705;BME280;4389;41.932;25.904;2023-07-13T08:21:14;-16952.72;;;33.36;51.12
8705;BME280;4389;41.932;25.904;2023-07-13T08:23:41;-16956.13;;;33.49;49.98
8705;BME280;4389;41.932;25.904;2023-07-13T08:26:08;-16959.16;;;33.61;49.93
8705;BME280;4389;41.932;25.904;2023-07-13T08:28:35;-16966.63;;;33.89;49.65
8705;BME280;4389;41.932;25.904;2023-07-13T08:31:02;-16967.66;;;33.93;49.06
8705;BME280;4389;41.932;25.904;2023-07-13T08:33:30;-16963.75;;;33.78;48.90
8705;BME280;4389;41.932;25.904;2023-07-13T08:35:57;-16965.56;;;33.85;48.86
8705;BME280;4389;41.932;25.904;2023-07-13T08:38:24;-16967.41;;;33.92;48.31
8705;BME280;4389;41.932;25.904;2023-07-13T08:40:53;-16973.94;;;34.17;47.79
8705;BME280;4389;41.932;25.904;2023-07-13T08:43:25;-16981.53;;;34.46;47.89
8705;BME280;4389;41.932;25.904;2023-07-13T08:45:57;-16983.50;;;34.54;47.06
8705;BME280;4389;41.932;25.904;2023-07-13T08:48:27;-16982.31;;;34.49;48.05
8705;BME280;4389;41.932;25.904;2023-07-13T08:50:59;-16979.31;;;34.38;48.73
8705;BME280;4389;41.932;25.904;2023-07-13T08:53:32;-16984.94;;;34.59;47.02
8705;BME280;4389;41.932;25.904;2023-07-13T08:56:03;-16989.13;;;34.75;46.72
8705;BME280;4389;41.932;25.904;2023-07-13T08:58:33;-16992.28;;;34.87;47.02
8705;BME280;4389;41.932;25.904;2023-07-13T09:01:05;-16997.78;;;35.08;46.32
8705;BME280;4389;41.932;25.904;2023-07-13T09:03:51;-16998.28;;;35.10;45.73
8705;BME280;4389;41.932;25.904;2023-07-13T09:06:31;-16996.59;;;35.04;46.22
8705;BME280;4389;41.932;25.904;2023-07-13T09:09:02;-16995.41;;;34.99;46.87
8705;BME280;4389;41.932;25.904;2023-07-13T09:11:45;-17000.91;;;35.20;45.82
8705;BME280;4389;41.932;25.904;2023-07-13T09:14:33;-17003.53;;;35.30;46.19
8705;BME280;4389;41.932;25.904;2023-07-13T09:17:03;-17009.81;;;35.54;45.95
8705;BME280;4389;41.932;25.904;2023-07-13T09:19:32;-16997.63;;;35.08;46.23
8705;BME280;4389;41.932;25.904;2023-07-13T09:22:04;-16989.66;;;34.77;47.20
8705;BME280;4389;41.932;25.904;2023-07-13T09:24:37;-16997.25;;;35.06;46.61
8705;BME280;4389;41.932;25.904;2023-07-13T09:27:11;-16997.50;;;35.07;46.08
8705;BME280;4389;41.932;25.904;2023-07-13T09:29:41;-17005.22;;;35.37;46.45
8705;BME280;4389;41.932;25.904;2023-07-13T09:32:14;-17012.16;;;35.63;44.64
8705;BME280;4389;41.932;25.904;2023-07-13T09:34:50;-17008.63;;;35.50;44.18
8705;BME280;4389;41.932;25.904;2023-07-13T09:37:19;-17012.41;;;35.64;43.40
8705;BME280;4389;41.932;25.904;2023-07-13T09:39:49;-17015.28;;;35.75;43.75
8705;BME280;4389;41.932;25.904;2023-07-13T09:42:19;-17018.03;;;35.86;44.17
8705;BME280;4389;41.932;25.904;2023-07-13T09:44:55;-17016.88;;;35.81;43.51
8705;BME280;4389;41.932;25.904;2023-07-13T09:47:24;-17012.69;;;35.65;42.83
8705;BME280;4389;41.932;25.904;2023-07-13T09:49:57;-17016.09;;;35.78;42.35
8705;BME280;4389;41.932;25.904;2023-07-13T09:52:26;-17021.56;;;35.99;40.67
8705;BME280;4389;41.932;25.904;2023-07-13T09:54:54;-17025.75;;;36.15;41.04
8705;BME280;4389;41.932;25.904;2023-07-13T09:57:26;-17028.50;;;36.26;37.89
8705;BME280;4389;41.932;25.904;2023-07-13T09:59:55;-17025.50;;;36.14;39.18
8705;BME280;4389;41.932;25.904;2023-07-13T10:02:29;-17035.81;;;36.54;39.66
8705;BME280;4389;41.932;25.904;2023-07-13T10:04:59;-17043.53;;;36.83;39.96
8705;BME280;4389;41.932;25.904;2023-07-13T10:07:27;-17038.81;;;36.65;38.36
8705;BME280;4389;41.932;25.904;2023-07-13T10:09:55;-17035.28;;;36.52;38.94
8705;BME280;4389;41.932;25.904;2023-07-13T10:12:22;-17037.50;;;36.60;37.87
8705;BME280;4389;41.932;25.904;2023-07-13T10:14:51;-17044.06;;;36.85;36.73
8705;BME280;4389;41.932;25.904;2023-07-13T10:17:26;-17054.38;;;37.24;36.19
8705;BME280;4389;41.932;25.904;2023-07-13T10:19:59;-17058.94;;;37.42;35.63
8705;BME280;4389;41.932;25.904;2023-07-13T10:22:36;-17060.25;;;37.47;35.69
8705;BME280;4389;41.932;25.904;2023-07-13T10:25:14;-17057.88;;;37.38;35.64
8705;BME280;4389;41.932;25.904;2023-07-13T10:27:41;-17056.31;;;37.32;34.74
8705;BME280;4389;41.932;25.904;2023-07-13T10:30:13;-17058.69;;;37.41;34.87
8705;BME280;4389;41.932;25.904;2023-07-13T10:32:42;-17059.84;;;37.45;34.88
8705;BME280;4389;41.932;25.904;2023-07-13T10:35:11;-17061.81;;;37.53;35.33
8705;BME280;4389;41.932;25.904;2023-07-13T10:37:44;-17066.13;;;37.69;35.10
8705;BME280;4389;41.932;25.904;2023-07-13T10:40:14;-17062.47;;;37.55;35.36
8705;BME280;4389;41.932;25.904;2023-07-13T10:42:46;-17051.88;;;37.15;35.03
8705;BME280;4389;41.932;25.904;2023-07-13T10:45:16;-17049.94;;;37.07;35.47
8705;BME280;4389;41.932;25.904;2023-07-13T10:47:43;-17055.66;;;37.29;35.03
8705;BME280;4389;41.932;25.904;2023-07-13T10:50:17;-17057.09;;;37.35;34.39
8705;BME280;4389;41.932;25.904;2023-07-13T10:52:48;-17063.91;;;37.61;34.66
8705;BME280;4389;41.932;25.904;2023-07-13T10:55:35;-17065.34;;;37.66;34.48
8705;BME280;4389;41.932;25.904;2023-07-13T10:58:12;-17074.09;;;38.00;34.50
8705;BME280;4389;41.932;25.904;2023-07-13T11:00:46;-17072.91;;;37.95;33.50
8705;BME280;4389;41.932;25.904;2023-07-13T11:03:16;-17074.34;;;38.01;33.87
8705;BME280;4389;41.932;25.904;2023-07-13T11:05:48;-17070.16;;;37.85;34.13
8705;BME280;4389;41.932;25.904;2023-07-13T11:08:20;-17069.38;;;37.82;34.15
8705;BME280;4389;41.932;25.904;2023-07-13T11:10:52;-17074.47;;;38.01;34.33
8705;BME280;4389;41.932;25.904;2023-07-13T11:13:55;-17078.13;;;38.15;33.80
8705;BME280;4389;41.932;25.904;2023-07-13T11:16:38;-17075.91;;;38.07;34.29
8705;BME280;4389;41.932;25.904;2023-07-13T11:19:26;-17077.59;;;38.13;32.96
8705;BME280;4389;41.932;25.904;2023-07-13T11:25:02;-17079.81;;;38.22;31.99
8705;BME280;4389;41.932;25.904;2023-07-13T11:27:51;-17080.34;;;38.24;31.96
8705;BME280;4389;41.932;25.904;2023-07-13T11:30:23;-17085.44;;;38.43;32.04
8705;BME280;4389;41.932;25.904;2023-07-13T11:33:01;-17087.38;;;38.51;31.68
8705;BME280;4389;41.932;25.904;2023-07-13T11:35:33;-17084.38;;;38.39;31.72
8705;BME280;4389;41.932;25.904;2023-07-13T11:38:12;-17086.88;;;38.49;32.06
8705;BME280;4389;41.932;25.904;2023-07-13T11:40:43;-17088.69;;;38.56;31.55
8705;BME280;4389;41.932;25.904;2023-07-13T11:43:13;-17087.13;;;38.50;31.88
8705;BME280;4389;41.932;25.904;2023-07-13T11:45:41;-17094.28;;;38.77;31.86
8705;BME280;4389;41.932;25.904;2023-07-13T11:48:19;-17094.44;;;38.78;31.19
8705;BME280;4389;41.932;25.904;2023-07-13T11:50:53;-17085.31;;;38.43;31.29
8705;BME280;4389;41.932;25.904;2023-07-13T11:53:21;-17092.59;;;38.71;30.81
8705;BME280;4389;41.932;25.904;2023-07-13T11:55:51;-17101.47;;;39.05;29.94
8705;BME280;4389;41.932;25.904;2023-07-13T11:58:22;-17099.38;;;38.97;30.86
8705;BME280;4389;41.932;25.904;2023-07-13T12:00:50;-17095.75;;;38.83;30.23
8705;BME280;4389;41.932;25.904;2023-07-13T12:03:22;-17100.16;;;39.00;30.33
8705;BME280;4389;41.932;25.904;2023-07-13T12:05:58;-17099.38;;;38.97;29.29
8705;BME280;4389;41.932;25.904;2023-07-13T12:08:26;-17097.03;;;38.88;29.96
8705;BME280;4389;41.932;25.904;2023-07-13T12:10:59;-17098.88;;;38.95;30.82
8705;BME280;4389;41.932;25.904;2023-07-13T12:13:27;-17100.16;;;39.00;30.33
8705;BME280;4389;41.932;25.904;2023-07-13T12:15:56;-17100.44;;;39.01;28.92
8705;BME280;4389;41.932;25.904;2023-07-13T12:18:29;-17102.13;;;39.07;29.03
8705;BME280;4389;41.932;25.904;2023-07-13T12:20:58;-17108.25;;;39.31;29.18
8705;BME280;4389;41.932;25.904;2023-07-13T12:23:29;-17113.84;;;39.52;28.97
8705;BME280;4389;41.932;25.904;2023-07-13T12:25:59;-17116.84;;;39.64;28.74
8705;BME280;4389;41.932;25.904;2023-07-13T12:28:33;-17120.50;;;39.78;28.81
8705;BME280;4389;41.932;25.904;2023-07-13T12:31:01;-17121.28;;;39.81;27.67
8705;BME280;4389;41.932;25.904;2023-07-13T12:33:29;-17121.00;;;39.80;27.34
8705;BME280;4389;41.932;25.904;2023-07-13T12:36:00;-17121.81;;;39.83;27.10
8705;BME280;4389;41.932;25.904;2023-07-13T12:38:29;-17127.53;;;40.05;27.24
8705;BME280;4389;41.932;25.904;2023-07-13T12:40:58;-17124.16;;;39.92;27.54
8705;BME280;4389;41.932;25.904;2023-07-13T12:43:25;-17114.88;;;39.56;28.62
8705;BME280;4389;41.932;25.904;2023-07-13T12:45:58;-17109.03;;;39.34;28.28
8705;BME280;4389;41.932;25.904;2023-07-13T12:48:25;-17105.25;;;39.19;28.91
8705;BME280;4389;41.932;25.904;2023-07-13T12:50:54;-17109.94;;;39.37;28.90
8705;BME280;4389;41.932;25.904;2023-07-13T12:53:28;-17112.16;;;39.46;27.96
8705;BME280;4389;41.932;25.904;2023-07-13T12:55:59;-17107.72;;;39.29;27.73
8705;BME280;4389;41.932;25.904;2023-07-13T12:58:30;-17114.50;;;39.55;28.63
8705;BME280;4389;41.932;25.904;2023-07-13T13:01:00;-17114.75;;;39.56;28.26
8705;BME280;4389;41.932;25.904;2023-07-13T13:03:30;-17119.97;;;39.76;26.91
8705;BME280;4389;41.932;25.904;2023-07-13T13:05:59;-17118.81;;;39.71;27.29
8705;BME280;4389;41.932;25.904;2023-07-13T13:08:30;-17121.53;;;39.82;28.14
8705;BME280;4389;41.932;25.904;2023-07-13T13:10:58;-17123.63;;;39.90;26.39
8705;BME280;4389;41.932;25.904;2023-07-13T13:13:25;-17122.56;;;39.86;26.12